JM-0006 weather

Port Esquivel Airstrip
Saint Catherine, Jamaica

Public forecast

Using degrees Celsius for public forecast. Weather courtesy of forecast.io.

Closest aviation weather report (METAR) to Port Esquivel Airstrip

Closest report is Norman Manley International Airport, 20.1 nm (37.2 km) E. Retrieved 2020/02/27 00:00 UTC (41 minutes ago):

MKJP 270000Z 14013KT 9999 FEW022 27/23 Q1014

Closest aviation forecast (TAF) to Port Esquivel Airstrip

Closest forecast is Norman Manley International Airport, 20.1 nm (37.2 km) E. Retrieved 2020-02-27 00:13 UTC (28 minutes ago):

TAF MKJP 262315Z 2700/2724 14015KT 9999 FEW022 BECMG 2706/2708 36004KT BECMG 2714/2716 15010KT FEW022 SCT032